sensor_id;sensor_type;location;lat;lon;timestamp;P1;durP1;ratioP1;P2;durP2;ratioP2
74908;SDS011;63468;52.058;4.824;2022-10-16T00:00:36;16.08;;;8.60;;
74908;SDS011;63468;52.058;4.824;2022-10-16T00:03:02;9.85;;;8.60;;
74908;SDS011;63468;52.058;4.824;2022-10-16T00:05:28;11.00;;;8.60;;
74908;SDS011;63468;52.058;4.824;2022-10-16T00:07:53;10.65;;;8.43;;
74908;SDS011;63468;52.058;4.824;2022-10-16T00:10:19;11.95;;;8.65;;
74908;SDS011;63468;52.058;4.824;2022-10-16T00:12:44;9.45;;;8.45;;
74908;SDS011;63468;52.058;4.824;2022-10-16T00:15:09;11.85;;;8.07;;
74908;SDS011;63468;52.058;4.824;2022-10-16T00:17:35;12.35;;;8.38;;
74908;SDS011;63468;52.058;4.824;2022-10-16T00:20:00;10.90;;;8.20;;
74908;SDS011;63468;52.058;4.824;2022-10-16T00:22:28;9.32;;;8.32;;
74908;SDS011;63468;52.058;4.824;2022-10-16T00:24:54;11.88;;;8.75;;
74908;SDS011;63468;52.058;4.824;2022-10-16T00:27:19;14.13;;;9.07;;
74908;SDS011;63468;52.058;4.824;2022-10-16T00:29:44;11.15;;;8.63;;
74908;SDS011;63468;52.058;4.824;2022-10-16T00:32:10;11.30;;;9.32;;
74908;SDS011;63468;52.058;4.824;2022-10-16T00:34:35;10.30;;;9.13;;
74908;SDS011;63468;52.058;4.824;2022-10-16T00:37:00;9.90;;;8.90;;
74908;SDS011;63468;52.058;4.824;2022-10-16T00:39:26;11.65;;;8.43;;
74908;SDS011;63468;52.058;4.824;2022-10-16T00:41:54;10.27;;;8.55;;
74908;SDS011;63468;52.058;4.824;2022-10-16T00:47:08;10.63;;;8.15;;
74908;SDS011;63468;52.058;4.824;2022-10-16T00:49:35;9.18;;;8.10;;
74908;SDS011;63468;52.058;4.824;2022-10-16T00:52:00;8.95;;;7.97;;
74908;SDS011;63468;52.058;4.824;2022-10-16T00:54:26;10.85;;;8.15;;
74908;SDS011;63468;52.058;4.824;2022-10-16T00:56:53;11.98;;;8.60;;
74908;SDS011;63468;52.058;4.824;2022-10-16T00:59:24;9.65;;;8.68;;
74908;SDS011;63468;52.058;4.824;2022-10-16T01:01:51;9.35;;;7.78;;
74908;SDS011;63468;52.058;4.824;2022-10-16T01:04:17;10.98;;;8.30;;
74908;SDS011;63468;52.058;4.824;2022-10-16T01:06:47;11.98;;;8.18;;
74908;SDS011;63468;52.058;4.824;2022-10-16T01:09:26;10.32;;;8.73;;
74908;SDS011;63468;52.058;4.824;2022-10-16T01:12:09;10.60;;;8.18;;
74908;SDS011;63468;52.058;4.824;2022-10-16T01:22:43;10.60;;;8.35;;
74908;SDS011;63468;52.058;4.824;2022-10-16T01:25:18;9.77;;;8.63;;
74908;SDS011;63468;52.058;4.824;2022-10-16T01:27:50;10.35;;;8.50;;
74908;SDS011;63468;52.058;4.824;2022-10-16T01:30:34;12.05;;;8.52;;
74908;SDS011;63468;52.058;4.824;2022-10-16T01:35:43;12.60;;;8.68;;
74908;SDS011;63468;52.058;4.824;2022-10-16T01:38:30;10.40;;;8.38;;
74908;SDS011;63468;52.058;4.824;2022-10-16T01:41:19;9.30;;;8.13;;
74908;SDS011;63468;52.058;4.824;2022-10-16T01:43:53;9.60;;;8.23;;
74908;SDS011;63468;52.058;4.824;2022-10-16T01:46:22;9.65;;;8.23;;
74908;SDS011;63468;52.058;4.824;2022-10-16T01:48:48;9.77;;;8.55;;
74908;SDS011;63468;52.058;4.824;2022-10-16T01:51:13;11.63;;;8.38;;
74908;SDS011;63468;52.058;4.824;2022-10-16T01:53:40;11.48;;;8.55;;
74908;SDS011;63468;52.058;4.824;2022-10-16T01:56:08;9.73;;;8.70;;
74908;SDS011;63468;52.058;4.824;2022-10-16T01:58:36;11.93;;;9.77;;
74908;SDS011;63468;52.058;4.824;2022-10-16T02:01:07;10.05;;;9.00;;
74908;SDS011;63468;52.058;4.824;2022-10-16T02:03:34;10.23;;;9.23;;
74908;SDS011;63468;52.058;4.824;2022-10-16T02:06:01;10.07;;;9.07;;
74908;SDS011;63468;52.058;4.824;2022-10-16T02:08:27;9.75;;;8.73;;
74908;SDS011;63468;52.058;4.824;2022-10-16T02:10:57;10.73;;;8.63;;
74908;SDS011;63468;52.058;4.824;2022-10-16T02:15:53;10.95;;;9.80;;
74908;SDS011;63468;52.058;4.824;2022-10-16T02:18:18;10.13;;;9.00;;
74908;SDS011;63468;52.058;4.824;2022-10-16T02:20:55;11.95;;;9.50;;
74908;SDS011;63468;52.058;4.824;2022-10-16T02:23:26;12.82;;;9.23;;
74908;SDS011;63468;52.058;4.824;2022-10-16T02:26:15;10.38;;;9.27;;
74908;SDS011;63468;52.058;4.824;2022-10-16T02:28:46;12.15;;;10.15;;
74908;SDS011;63468;52.058;4.824;2022-10-16T02:31:16;12.05;;;9.55;;
74908;SDS011;63468;52.058;4.824;2022-10-16T02:36:11;11.35;;;9.50;;
74908;SDS011;63468;52.058;4.824;2022-10-16T02:38:37;12.48;;;9.77;;
74908;SDS011;63468;52.058;4.824;2022-10-16T02:41:04;12.88;;;8.98;;
74908;SDS011;63468;52.058;4.824;2022-10-16T02:43:29;10.75;;;9.45;;
74908;SDS011;63468;52.058;4.824;2022-10-16T02:45:54;12.40;;;9.38;;
74908;SDS011;63468;52.058;4.824;2022-10-16T02:48:20;10.15;;;9.15;;
74908;SDS011;63468;52.058;4.824;2022-10-16T02:50:46;13.82;;;9.80;;
74908;SDS011;63468;52.058;4.824;2022-10-16T02:53:11;14.48;;;8.88;;
74908;SDS011;63468;52.058;4.824;2022-10-16T02:55:36;10.50;;;9.18;;
74908;SDS011;63468;52.058;4.824;2022-10-16T02:58:02;10.68;;;9.57;;
74908;SDS011;63468;52.058;4.824;2022-10-16T03:00:27;11.57;;;9.13;;
74908;SDS011;63468;52.058;4.824;2022-10-16T03:02:53;10.30;;;9.20;;
74908;SDS011;63468;52.058;4.824;2022-10-16T03:05:19;14.45;;;9.55;;
74908;SDS011;63468;52.058;4.824;2022-10-16T03:07:44;11.98;;;9.73;;
74908;SDS011;63468;52.058;4.824;2022-10-16T03:10:09;13.35;;;10.00;;
74908;SDS011;63468;52.058;4.824;2022-10-16T03:12:35;11.30;;;10.07;;
74908;SDS011;63468;52.058;4.824;2022-10-16T03:15:00;14.93;;;10.02;;
74908;SDS011;63468;52.058;4.824;2022-10-16T03:17:25;11.05;;;9.80;;
74908;SDS011;63468;52.058;4.824;2022-10-16T03:19:51;10.55;;;9.45;;
74908;SDS011;63468;52.058;4.824;2022-10-16T03:22:16;10.63;;;9.48;;
74908;SDS011;63468;52.058;4.824;2022-10-16T03:24:41;21.35;;;9.80;;
74908;SDS011;63468;52.058;4.824;2022-10-16T03:27:07;12.60;;;9.25;;
74908;SDS011;63468;52.058;4.824;2022-10-16T03:29:32;12.43;;;9.52;;
74908;SDS011;63468;52.058;4.824;2022-10-16T03:31:58;14.00;;;10.27;;
74908;SDS011;63468;52.058;4.824;2022-10-16T03:34:25;11.95;;;8.98;;
74908;SDS011;63468;52.058;4.824;2022-10-16T03:36:51;11.27;;;9.32;;
74908;SDS011;63468;52.058;4.824;2022-10-16T03:39:19;12.15;;;10.27;;
74908;SDS011;63468;52.058;4.824;2022-10-16T03:41:44;11.00;;;9.80;;
74908;SDS011;63468;52.058;4.824;2022-10-16T03:44:11;11.43;;;9.23;;
74908;SDS011;63468;52.058;4.824;2022-10-16T03:46:36;12.32;;;8.98;;
74908;SDS011;63468;52.058;4.824;2022-10-16T03:49:02;12.60;;;8.82;;
74908;SDS011;63468;52.058;4.824;2022-10-16T03:51:27;13.73;;;9.65;;
74908;SDS011;63468;52.058;4.824;2022-10-16T03:53:52;10.98;;;8.93;;
74908;SDS011;63468;52.058;4.824;2022-10-16T03:56:18;11.18;;;9.20;;
74908;SDS011;63468;52.058;4.824;2022-10-16T03:58:43;10.82;;;9.13;;
74908;SDS011;63468;52.058;4.824;2022-10-16T04:01:08;11.52;;;10.40;;
74908;SDS011;63468;52.058;4.824;2022-10-16T04:03:34;12.52;;;9.02;;
74908;SDS011;63468;52.058;4.824;2022-10-16T04:05:59;12.38;;;9.30;;
74908;SDS011;63468;52.058;4.824;2022-10-16T04:08:24;11.75;;;9.10;;
74908;SDS011;63468;52.058;4.824;2022-10-16T04:10:50;13.75;;;8.90;;
74908;SDS011;63468;52.058;4.824;2022-10-16T04:13:15;10.48;;;9.40;;
74908;SDS011;63468;52.058;4.824;2022-10-16T04:15:40;9.70;;;8.70;;
74908;SDS011;63468;52.058;4.824;2022-10-16T04:18:06;11.40;;;8.48;;
74908;SDS011;63468;52.058;4.824;2022-10-16T04:20:31;9.93;;;8.93;;
74908;SDS011;63468;52.058;4.824;2022-10-16T04:22:57;10.73;;;9.25;;
74908;SDS011;63468;52.058;4.824;2022-10-16T04:25:22;11.48;;;9.40;;
74908;SDS011;63468;52.058;4.824;2022-10-16T04:27:47;9.82;;;8.68;;
74908;SDS011;63468;52.058;4.824;2022-10-16T04:30:13;10.20;;;8.32;;
74908;SDS011;63468;52.058;4.824;2022-10-16T04:32:38;11.45;;;8.35;;
74908;SDS011;63468;52.058;4.824;2022-10-16T04:35:04;10.85;;;8.40;;
74908;SDS011;63468;52.058;4.824;2022-10-16T04:37:29;12.25;;;9.45;;
74908;SDS011;63468;52.058;4.824;2022-10-16T04:39:55;12.50;;;8.40;;
74908;SDS011;63468;52.058;4.824;2022-10-16T04:42:20;9.23;;;8.25;;
74908;SDS011;63468;52.058;4.824;2022-10-16T04:44:45;11.95;;;8.90;;
74908;SDS011;63468;52.058;4.824;2022-10-16T04:47:11;9.55;;;8.18;;
74908;SDS011;63468;52.058;4.824;2022-10-16T04:49:36;10.90;;;8.50;;
74908;SDS011;63468;52.058;4.824;2022-10-16T04:52:02;12.30;;;8.70;;
74908;SDS011;63468;52.058;4.824;2022-10-16T04:54:28;9.48;;;8.40;;
74908;SDS011;63468;52.058;4.824;2022-10-16T04:56:53;11.25;;;8.48;;
74908;SDS011;63468;52.058;4.824;2022-10-16T04:59:19;11.88;;;9.48;;
74908;SDS011;63468;52.058;4.824;2022-10-16T05:01:44;10.10;;;9.00;;
74908;SDS011;63468;52.058;4.824;2022-10-16T05:04:10;9.65;;;8.65;;
74908;SDS011;63468;52.058;4.824;2022-10-16T05:06:35;11.85;;;9.52;;
74908;SDS011;63468;52.058;4.824;2022-10-16T05:09:01;10.82;;;9.73;;
74908;SDS011;63468;52.058;4.824;2022-10-16T05:11:27;11.25;;;8.85;;
74908;SDS011;63468;52.058;4.824;2022-10-16T05:13:52;11.80;;;9.57;;
74908;SDS011;63468;52.058;4.824;2022-10-16T05:16:18;10.48;;;9.40;;
74908;SDS011;63468;52.058;4.824;2022-10-16T05:18:43;10.60;;;9.57;;
74908;SDS011;63468;52.058;4.824;2022-10-16T05:21:08;22.15;;;9.25;;
74908;SDS011;63468;52.058;4.824;2022-10-16T05:23:34;12.13;;;8.95;;
74908;SDS011;63468;52.058;4.824;2022-10-16T05:25:59;11.15;;;9.13;;
74908;SDS011;63468;52.058;4.824;2022-10-16T05:28:25;10.13;;;8.93;;
74908;SDS011;63468;52.058;4.824;2022-10-16T05:30:52;9.15;;;8.23;;
74908;SDS011;63468;52.058;4.824;2022-10-16T05:33:21;10.63;;;8.65;;
74908;SDS011;63468;52.058;4.824;2022-10-16T05:35:47;10.27;;;9.27;;
74908;SDS011;63468;52.058;4.824;2022-10-16T05:38:13;11.82;;;10.65;;
74908;SDS011;63468;52.058;4.824;2022-10-16T05:40:38;15.13;;;9.18;;
74908;SDS011;63468;52.058;4.824;2022-10-16T05:43:04;11.93;;;9.10;;
74908;SDS011;63468;52.058;4.824;2022-10-16T05:45:29;11.23;;;9.10;;
74908;SDS011;63468;52.058;4.824;2022-10-16T05:47:54;10.13;;;6.97;;
74908;SDS011;63468;52.058;4.824;2022-10-16T05:50:20;10.25;;;7.78;;
74908;SDS011;63468;52.058;4.824;2022-10-16T05:52:45;10.30;;;9.13;;
74908;SDS011;63468;52.058;4.824;2022-10-16T05:55:10;11.07;;;8.35;;
74908;SDS011;63468;52.058;4.824;2022-10-16T05:57:36;12.15;;;9.10;;
74908;SDS011;63468;52.058;4.824;2022-10-16T06:00:02;9.85;;;8.77;;
74908;SDS011;63468;52.058;4.824;2022-10-16T06:02:28;33.05;;;10.73;;
74908;SDS011;63468;52.058;4.824;2022-10-16T06:04:54;11.60;;;10.50;;
74908;SDS011;63468;52.058;4.824;2022-10-16T06:07:19;10.32;;;9.32;;
74908;SDS011;63468;52.058;4.824;2022-10-16T06:09:47;11.13;;;9.18;;
74908;SDS011;63468;52.058;4.824;2022-10-16T06:12:14;10.85;;;8.98;;
74908;SDS011;63468;52.058;4.824;2022-10-16T06:14:40;12.60;;;9.35;;
74908;SDS011;63468;52.058;4.824;2022-10-16T06:17:05;10.75;;;8.00;;
74908;SDS011;63468;52.058;4.824;2022-10-16T06:19:30;12.65;;;9.23;;
74908;SDS011;63468;52.058;4.824;2022-10-16T06:21:56;10.55;;;9.45;;
74908;SDS011;63468;52.058;4.824;2022-10-16T06:24:22;11.88;;;10.35;;
74908;SDS011;63468;52.058;4.824;2022-10-16T06:26:48;15.48;;;9.52;;
74908;SDS011;63468;52.058;4.824;2022-10-16T06:29:13;12.25;;;9.07;;
74908;SDS011;63468;52.058;4.824;2022-10-16T06:31:38;10.43;;;9.27;;
74908;SDS011;63468;52.058;4.824;2022-10-16T06:34:04;12.88;;;9.15;;
74908;SDS011;63468;52.058;4.824;2022-10-16T06:36:34;13.07;;;9.00;;
74908;SDS011;63468;52.058;4.824;2022-10-16T06:38:59;10.80;;;9.30;;
74908;SDS011;63468;52.058;4.824;2022-10-16T06:41:24;9.48;;;8.25;;
74908;SDS011;63468;52.058;4.824;2022-10-16T06:43:50;12.20;;;9.40;;
74908;SDS011;63468;52.058;4.824;2022-10-16T06:46:16;11.50;;;8.70;;
74908;SDS011;63468;52.058;4.824;2022-10-16T06:48:42;12.50;;;7.63;;
74908;SDS011;63468;52.058;4.824;2022-10-16T06:51:09;12.82;;;8.50;;
74908;SDS011;63468;52.058;4.824;2022-10-16T06:53:39;8.98;;;8.05;;
74908;SDS011;63468;52.058;4.824;2022-10-16T06:56:25;9.57;;;7.47;;
74908;SDS011;63468;52.058;4.824;2022-10-16T06:58:52;11.77;;;8.70;;
74908;SDS011;63468;52.058;4.824;2022-10-16T07:01:21;11.15;;;8.45;;
74908;SDS011;63468;52.058;4.824;2022-10-16T07:03:47;11.45;;;8.13;;
74908;SDS011;63468;52.058;4.824;2022-10-16T07:06:14;8.82;;;7.68;;
74908;SDS011;63468;52.058;4.824;2022-10-16T07:08:41;9.38;;;8.15;;
74908;SDS011;63468;52.058;4.824;2022-10-16T07:11:08;13.13;;;8.48;;
74908;SDS011;63468;52.058;4.824;2022-10-16T07:13:35;12.38;;;8.73;;
74908;SDS011;63468;52.058;4.824;2022-10-16T07:16:05;9.73;;;8.23;;
74908;SDS011;63468;52.058;4.824;2022-10-16T07:18:34;11.57;;;7.72;;
74908;SDS011;63468;52.058;4.824;2022-10-16T07:23:30;12.82;;;9.00;;
74908;SDS011;63468;52.058;4.824;2022-10-16T07:25:55;10.60;;;8.25;;
74908;SDS011;63468;52.058;4.824;2022-10-16T07:28:21;10.23;;;9.13;;
74908;SDS011;63468;52.058;4.824;2022-10-16T07:30:46;10.00;;;8.27;;
74908;SDS011;63468;52.058;4.824;2022-10-16T07:33:12;10.00;;;9.00;;
74908;SDS011;63468;52.058;4.824;2022-10-16T07:35:37;9.68;;;8.68;;
74908;SDS011;63468;52.058;4.824;2022-10-16T07:38:03;9.13;;;8.20;;
74908;SDS011;63468;52.058;4.824;2022-10-16T07:40:28;10.25;;;8.90;;
74908;SDS011;63468;52.058;4.824;2022-10-16T07:42:53;10.10;;;8.77;;
74908;SDS011;63468;52.058;4.824;2022-10-16T07:45:19;11.93;;;8.63;;
74908;SDS011;63468;52.058;4.824;2022-10-16T07:47:44;9.93;;;7.25;;
74908;SDS011;63468;52.058;4.824;2022-10-16T07:50:09;14.68;;;8.30;;
74908;SDS011;63468;52.058;4.824;2022-10-16T07:52:35;11.68;;;9.55;;
74908;SDS011;63468;52.058;4.824;2022-10-16T07:55:00;12.63;;;8.73;;
74908;SDS011;63468;52.058;4.824;2022-10-16T07:57:25;12.02;;;9.15;;
74908;SDS011;63468;52.058;4.824;2022-10-16T07:59:51;16.73;;;10.07;;
74908;SDS011;63468;52.058;4.824;2022-10-16T08:02:16;11.63;;;8.52;;
74908;SDS011;63468;52.058;4.824;2022-10-16T08:04:41;12.60;;;8.73;;
74908;SDS011;63468;52.058;4.824;2022-10-16T08:07:10;11.50;;;9.52;;
74908;SDS011;63468;52.058;4.824;2022-10-16T08:09:35;10.73;;;9.13;;
74908;SDS011;63468;52.058;4.824;2022-10-16T08:12:00;13.20;;;8.43;;
74908;SDS011;63468;52.058;4.824;2022-10-16T08:14:27;15.50;;;10.05;;
74908;SDS011;63468;52.058;4.824;2022-10-16T08:16:52;12.95;;;9.23;;
74908;SDS011;63468;52.058;4.824;2022-10-16T08:19:18;12.40;;;9.38;;
74908;SDS011;63468;52.058;4.824;2022-10-16T08:21:46;14.20;;;8.90;;
74908;SDS011;63468;52.058;4.824;2022-10-16T08:24:12;11.18;;;8.27;;
74908;SDS011;63468;52.058;4.824;2022-10-16T08:26:37;10.15;;;8.75;;
74908;SDS011;63468;52.058;4.824;2022-10-16T08:29:03;20.48;;;9.25;;
74908;SDS011;63468;52.058;4.824;2022-10-16T08:31:28;11.85;;;8.82;;
74908;SDS011;63468;52.058;4.824;2022-10-16T08:33:53;16.48;;;9.05;;
74908;SDS011;63468;52.058;4.824;2022-10-16T08:36:19;13.95;;;8.98;;
74908;SDS011;63468;52.058;4.824;2022-10-16T08:38:49;12.73;;;8.98;;
74908;SDS011;63468;52.058;4.824;2022-10-16T08:41:23;11.45;;;9.63;;
74908;SDS011;63468;52.058;4.824;2022-10-16T08:49:35;14.40;;;7.65;;
74908;SDS011;63468;52.058;4.824;2022-10-16T08:52:02;16.45;;;9.02;;
74908;SDS011;63468;52.058;4.824;2022-10-16T08:54:28;17.90;;;10.05;;
74908;SDS011;63468;52.058;4.824;2022-10-16T08:56:56;10.18;;;9.07;;
74908;SDS011;63468;52.058;4.824;2022-10-16T08:59:22;16.75;;;9.40;;
74908;SDS011;63468;52.058;4.824;2022-10-16T09:01:52;9.73;;;8.65;;
74908;SDS011;63468;52.058;4.824;2022-10-16T09:09:41;16.77;;;9.77;;
74908;SDS011;63468;52.058;4.824;2022-10-16T09:12:24;16.50;;;9.68;;
74908;SDS011;63468;52.058;4.824;2022-10-16T09:18:15;14.98;;;9.70;;
74908;SDS011;63468;52.058;4.824;2022-10-16T09:23:40;12.67;;;9.83;;
74908;SDS011;63468;52.058;4.824;2022-10-16T09:26:05;17.05;;;10.27;;
74908;SDS011;63468;52.058;4.824;2022-10-16T09:28:35;15.75;;;9.68;;
74908;SDS011;63468;52.058;4.824;2022-10-16T09:31:01;14.50;;;10.15;;
74908;SDS011;63468;52.058;4.824;2022-10-16T09:33:30;11.77;;;9.25;;
74908;SDS011;63468;52.058;4.824;2022-10-16T09:35:58;11.05;;;9.55;;
74908;SDS011;63468;52.058;4.824;2022-10-16T09:38:31;13.55;;;9.93;;
74908;SDS011;63468;52.058;4.824;2022-10-16T09:40:58;17.42;;;8.30;;
74908;SDS011;63468;52.058;4.824;2022-10-16T09:43:32;11.40;;;9.95;;
74908;SDS011;63468;52.058;4.824;2022-10-16T09:46:01;15.35;;;8.75;;
74908;SDS011;63468;52.058;4.824;2022-10-16T09:48:33;15.68;;;9.98;;
74908;SDS011;63468;52.058;4.824;2022-10-16T09:51:03;12.05;;;7.47;;
74908;SDS011;63468;52.058;4.824;2022-10-16T09:53:43;11.77;;;9.02;;
74908;SDS011;63468;52.058;4.824;2022-10-16T09:56:20;16.13;;;10.70;;
74908;SDS011;63468;52.058;4.824;2022-10-16T09:58:51;16.98;;;9.27;;
74908;SDS011;63468;52.058;4.824;2022-10-16T10:01:17;17.33;;;9.95;;
74908;SDS011;63468;52.058;4.824;2022-10-16T10:03:44;14.48;;;10.40;;
74908;SDS011;63468;52.058;4.824;2022-10-16T10:06:26;12.27;;;9.60;;
74908;SDS011;63468;52.058;4.824;2022-10-16T10:08:56;17.15;;;10.18;;
74908;SDS011;63468;52.058;4.824;2022-10-16T10:16:48;13.30;;;8.75;;
74908;SDS011;63468;52.058;4.824;2022-10-16T10:19:18;15.38;;;10.35;;
74908;SDS011;63468;52.058;4.824;2022-10-16T10:21:48;16.88;;;9.95;;
74908;SDS011;63468;52.058;4.824;2022-10-16T10:24:15;13.32;;;10.13;;
74908;SDS011;63468;52.058;4.824;2022-10-16T10:26:52;16.15;;;9.02;;
74908;SDS011;63468;52.058;4.824;2022-10-16T10:29:37;14.93;;;9.43;;
74908;SDS011;63468;52.058;4.824;2022-10-16T10:32:35;13.15;;;9.60;;
74908;SDS011;63468;52.058;4.824;2022-10-16T10:35:06;15.52;;;10.13;;
74908;SDS011;63468;52.058;4.824;2022-10-16T10:37:42;15.20;;;8.68;;
74908;SDS011;63468;52.058;4.824;2022-10-16T10:40:45;13.55;;;9.90;;
74908;SDS011;63468;52.058;4.824;2022-10-16T10:46:09;16.75;;;9.30;;
74908;SDS011;63468;52.058;4.824;2022-10-16T10:48:47;18.02;;;9.07;;
74908;SDS011;63468;52.058;4.824;2022-10-16T10:51:23;13.77;;;10.35;;
74908;SDS011;63468;52.058;4.824;2022-10-16T10:54:06;14.10;;;9.13;;
74908;SDS011;63468;52.058;4.824;2022-10-16T11:01:38;11.73;;;9.95;;
74908;SDS011;63468;52.058;4.824;2022-10-16T11:09:17;14.35;;;8.85;;
74908;SDS011;63468;52.058;4.824;2022-10-16T11:11:45;13.88;;;7.60;;
74908;SDS011;63468;52.058;4.824;2022-10-16T11:14:16;16.58;;;9.10;;
74908;SDS011;63468;52.058;4.824;2022-10-16T11:24:52;15.93;;;8.73;;
74908;SDS011;63468;52.058;4.824;2022-10-16T11:27:22;13.77;;;9.13;;
74908;SDS011;63468;52.058;4.824;2022-10-16T11:29:59;13.48;;;8.25;;
74908;SDS011;63468;52.058;4.824;2022-10-16T11:32:32;15.50;;;8.70;;
74908;SDS011;63468;52.058;4.824;2022-10-16T11:35:02;11.65;;;9.00;;
74908;SDS011;63468;52.058;4.824;2022-10-16T11:37:34;12.23;;;8.00;;
74908;SDS011;63468;52.058;4.824;2022-10-16T11:42:48;15.57;;;8.48;;
74908;SDS011;63468;52.058;4.824;2022-10-16T11:56:41;11.75;;;8.60;;
74908;SDS011;63468;52.058;4.824;2022-10-16T12:04:34;17.33;;;9.23;;
74908;SDS011;63468;52.058;4.824;2022-10-16T12:07:12;16.50;;;8.40;;
74908;SDS011;63468;52.058;4.824;2022-10-16T12:09:40;14.52;;;8.18;;
74908;SDS011;63468;52.058;4.824;2022-10-16T12:14:59;12.00;;;8.82;;
74908;SDS011;63468;52.058;4.824;2022-10-16T12:17:27;13.40;;;8.52;;
74908;SDS011;63468;52.058;4.824;2022-10-16T12:20:02;13.00;;;8.60;;
74908;SDS011;63468;52.058;4.824;2022-10-16T12:22:47;11.45;;;8.70;;
74908;SDS011;63468;52.058;4.824;2022-10-16T12:25:20;11.57;;;7.82;;
74908;SDS011;63468;52.058;4.824;2022-10-16T12:30:52;19.83;;;9.68;;
74908;SDS011;63468;52.058;4.824;2022-10-16T12:33:24;12.18;;;8.85;;
74908;SDS011;63468;52.058;4.824;2022-10-16T12:35:50;10.93;;;9.13;;
74908;SDS011;63468;52.058;4.824;2022-10-16T12:38:20;12.02;;;9.63;;
74908;SDS011;63468;52.058;4.824;2022-10-16T12:41:08;15.47;;;8.27;;
74908;SDS011;63468;52.058;4.824;2022-10-16T12:43:37;16.48;;;9.68;;
74908;SDS011;63468;52.058;4.824;2022-10-16T12:48:35;13.57;;;7.80;;
74908;SDS011;63468;52.058;4.824;2022-10-16T12:51:11;18.67;;;8.20;;
74908;SDS011;63468;52.058;4.824;2022-10-16T12:54:05;14.95;;;8.90;;
74908;SDS011;63468;52.058;4.824;2022-10-16T12:56:50;14.27;;;8.70;;
74908;SDS011;63468;52.058;4.824;2022-10-16T12:59:24;11.57;;;7.10;;
74908;SDS011;63468;52.058;4.824;2022-10-16T13:02:01;15.80;;;8.77;;
74908;SDS011;63468;52.058;4.824;2022-10-16T13:10:30;15.45;;;7.60;;
74908;SDS011;63468;52.058;4.824;2022-10-16T13:13:29;16.60;;;9.18;;
74908;SDS011;63468;52.058;4.824;2022-10-16T13:30:23;17.13;;;9.05;;
74908;SDS011;63468;52.058;4.824;2022-10-16T13:32:58;11.02;;;8.70;;
74908;SDS011;63468;52.058;4.824;2022-10-16T13:35:28;15.40;;;9.57;;
74908;SDS011;63468;52.058;4.824;2022-10-16T13:40:29;13.15;;;8.35;;
74908;SDS011;63468;52.058;4.824;2022-10-16T13:42:54;15.02;;;9.57;;
74908;SDS011;63468;52.058;4.824;2022-10-16T13:45:21;17.20;;;9.30;;
74908;SDS011;63468;52.058;4.824;2022-10-16T13:47:47;11.57;;;8.73;;
74908;SDS011;63468;52.058;4.824;2022-10-16T13:50:14;13.20;;;8.82;;
74908;SDS011;63468;52.058;4.824;2022-10-16T13:52:41;17.20;;;8.93;;
74908;SDS011;63468;52.058;4.824;2022-10-16T13:55:12;15.98;;;9.13;;
74908;SDS011;63468;52.058;4.824;2022-10-16T13:57:39;13.30;;;9.10;;
74908;SDS011;63468;52.058;4.824;2022-10-16T14:00:21;15.10;;;8.82;;
74908;SDS011;63468;52.058;4.824;2022-10-16T14:02:54;14.35;;;9.27;;
74908;SDS011;63468;52.058;4.824;2022-10-16T14:05:22;14.38;;;8.25;;
74908;SDS011;63468;52.058;4.824;2022-10-16T14:07:49;12.82;;;7.63;;
74908;SDS011;63468;52.058;4.824;2022-10-16T14:10:23;17.77;;;7.90;;
74908;SDS011;63468;52.058;4.824;2022-10-16T14:13:03;21.05;;;9.50;;
74908;SDS011;63468;52.058;4.824;2022-10-16T14:15:32;16.77;;;7.88;;
74908;SDS011;63468;52.058;4.824;2022-10-16T14:17:59;12.43;;;6.97;;
74908;SDS011;63468;52.058;4.824;2022-10-16T14:20:26;14.10;;;8.18;;
74908;SDS011;63468;52.058;4.824;2022-10-16T14:23:00;16.10;;;7.97;;
74908;SDS011;63468;52.058;4.824;2022-10-16T14:25:29;13.60;;;7.55;;
74908;SDS011;63468;52.058;4.824;2022-10-16T14:30:34;16.20;;;8.05;;
74908;SDS011;63468;52.058;4.824;2022-10-16T14:35:36;15.43;;;7.85;;
74908;SDS011;63468;52.058;4.824;2022-10-16T14:38:03;14.65;;;7.90;;
74908;SDS011;63468;52.058;4.824;2022-10-16T14:40:31;14.43;;;7.13;;
74908;SDS011;63468;52.058;4.824;2022-10-16T14:42:58;11.95;;;7.63;;
74908;SDS011;63468;52.058;4.824;2022-10-16T14:45:26;14.13;;;7.75;;
74908;SDS011;63468;52.058;4.824;2022-10-16T14:47:57;13.23;;;6.38;;
74908;SDS011;63468;52.058;4.824;2022-10-16T14:50:40;15.95;;;7.65;;
74908;SDS011;63468;52.058;4.824;2022-10-16T14:53:10;13.98;;;7.63;;
74908;SDS011;63468;52.058;4.824;2022-10-16T14:55:37;11.57;;;6.72;;
74908;SDS011;63468;52.058;4.824;2022-10-16T14:58:02;14.43;;;8.32;;
74908;SDS011;63468;52.058;4.824;2022-10-16T15:00:30;16.83;;;7.38;;
74908;SDS011;63468;52.058;4.824;2022-10-16T15:02:55;12.65;;;7.40;;
74908;SDS011;63468;52.058;4.824;2022-10-16T15:05:22;13.70;;;7.00;;
74908;SDS011;63468;52.058;4.824;2022-10-16T15:07:49;16.77;;;7.63;;
74908;SDS011;63468;52.058;4.824;2022-10-16T15:10:18;12.18;;;6.68;;
74908;SDS011;63468;52.058;4.824;2022-10-16T15:12:44;13.15;;;6.93;;
74908;SDS011;63468;52.058;4.824;2022-10-16T15:15:15;16.88;;;8.07;;
74908;SDS011;63468;52.058;4.824;2022-10-16T15:17:49;15.73;;;7.50;;
74908;SDS011;63468;52.058;4.824;2022-10-16T15:20:18;11.18;;;5.30;;
74908;SDS011;63468;52.058;4.824;2022-10-16T15:22:44;13.35;;;6.28;;
74908;SDS011;63468;52.058;4.824;2022-10-16T15:25:52;10.27;;;6.90;;
74908;SDS011;63468;52.058;4.824;2022-10-16T15:27:58;15.15;;;6.05;;
74908;SDS011;63468;52.058;4.824;2022-10-16T15:30:24;16.55;;;7.85;;
74908;SDS011;63468;52.058;4.824;2022-10-16T15:32:50;17.50;;;7.55;;
74908;SDS011;63468;52.058;4.824;2022-10-16T15:35:17;11.65;;;7.35;;
74908;SDS011;63468;52.058;4.824;2022-10-16T15:37:43;15.85;;;7.10;;
74908;SDS011;63468;52.058;4.824;2022-10-16T15:40:09;14.60;;;7.35;;
74908;SDS011;63468;52.058;4.824;2022-10-16T15:42:35;12.68;;;6.80;;
74908;SDS011;63468;52.058;4.824;2022-10-16T15:45:00;17.23;;;7.13;;
74908;SDS011;63468;52.058;4.824;2022-10-16T15:47:26;21.08;;;6.10;;
74908;SDS011;63468;52.058;4.824;2022-10-16T15:49:51;10.88;;;6.57;;
74908;SDS011;63468;52.058;4.824;2022-10-16T15:52:17;12.77;;;7.30;;
74908;SDS011;63468;52.058;4.824;2022-10-16T15:54:42;15.93;;;7.93;;
74908;SDS011;63468;52.058;4.824;2022-10-16T15:57:08;12.00;;;6.93;;
74908;SDS011;63468;52.058;4.824;2022-10-16T15:59:33;11.80;;;6.88;;
74908;SDS011;63468;52.058;4.824;2022-10-16T16:02:01;12.77;;;6.95;;
74908;SDS011;63468;52.058;4.824;2022-10-16T16:04:29;13.98;;;7.15;;
74908;SDS011;63468;52.058;4.824;2022-10-16T16:06:54;16.58;;;7.88;;
74908;SDS011;63468;52.058;4.824;2022-10-16T16:09:20;13.00;;;7.03;;
74908;SDS011;63468;52.058;4.824;2022-10-16T16:11:45;13.73;;;6.22;;
74908;SDS011;63468;52.058;4.824;2022-10-16T16:14:12;12.57;;;7.20;;
74908;SDS011;63468;52.058;4.824;2022-10-16T16:16:38;13.63;;;7.05;;
74908;SDS011;63468;52.058;4.824;2022-10-16T16:19:04;17.45;;;8.85;;
74908;SDS011;63468;52.058;4.824;2022-10-16T16:21:33;16.60;;;8.80;;
74908;SDS011;63468;52.058;4.824;2022-10-16T16:23:59;15.35;;;8.55;;
74908;SDS011;63468;52.058;4.824;2022-10-16T16:26:25;15.70;;;8.50;;
74908;SDS011;63468;52.058;4.824;2022-10-16T16:28:52;18.52;;;8.40;;
74908;SDS011;63468;52.058;4.824;2022-10-16T16:31:18;21.75;;;12.23;;
74908;SDS011;63468;52.058;4.824;2022-10-16T16:33:44;20.52;;;11.95;;
74908;SDS011;63468;52.058;4.824;2022-10-16T16:36:11;20.20;;;11.10;;
74908;SDS011;63468;52.058;4.824;2022-10-16T16:38:37;23.13;;;8.38;;
74908;SDS011;63468;52.058;4.824;2022-10-16T16:41:17;17.05;;;7.22;;
74908;SDS011;63468;52.058;4.824;2022-10-16T16:43:46;16.85;;;8.02;;